Wetterdaten: Woche 15.10.12 - 21.10.12 (KW42)
Datum Zeit Temp. A. Feuchte A. Luftdruck Regen Wind Richtung Taupunkt Windchill Windben
15.10.2012 00:00 12,1 C 83 % 1001,9 hPa 0,0 l/m 6,2 km/h N 9,3 C 12,1 C 15,7 km/h
15.10.2012 01:00 11,9 C 83 % 1001,7 hPa 0,0 l/m 6,0 km/h N 9,1 C 11,9 C 12,5 km/h
15.10.2012 02:00 11,7 C 83 % 1001,5 hPa 0,0 l/m 4,8 km/h N 8,9 C 11,7 C 10,9 km/h
15.10.2012 03:00 12,0 C 83 % 1001,3 hPa 0,0 l/m 6,7 km/h N 9,1 C 11,4 C 16,9 km/h
15.10.2012 04:00 12,6 C 80 % 1001,1 hPa 0,0 l/m 6,0 km/h N 9,3 C 12,4 C 18,9 km/h
15.10.2012 05:00 12,5 C 81 % 1001,6 hPa 0,0 l/m 4,8 km/h N 9,2 C 12,2 C 18,1 km/h
15.10.2012 06:00 12,2 C 82 % 1001,5 hPa 0,0 l/m 6,8 km/h N 9,3 C 11,6 C 18,9 km/h
15.10.2012 07:00 12,0 C 83 % 1001,1 hPa 0,0 l/m 11,5 km/h N 9,2 C 9,1 C 26,6 km/h
15.10.2012 08:00 12,9 C 82 % 1002,1 hPa 0,0 l/m 11,7 km/h N 9,9 C 10,0 C 27,4 km/h
15.10.2012 09:00 14,3 C 79 % 1002,3 hPa 0,0 l/m 12,3 km/h N 10,6 C 11,4 C 29,8 km/h
15.10.2012 10:00 16,3 C 73 % 1002,4 hPa 0,0 l/m 11,4 km/h N 11,5 C 14,0 C 30,2 km/h
15.10.2012 11:00 17,5 C 67 % 1002,8 hPa 0,0 l/m 11,8 km/h N 11,3 C 15,2 C 31,0 km/h
15.10.2012 12:00 18,8 C 65 % 1003,6 hPa 0,0 l/m 10,6 km/h N 12,0 C 17,2 C 26,2 km/h
15.10.2012 13:00 18,1 C 61 % 1004,4 hPa 0,0 l/m 6,0 km/h N 10,5 C 18,1 C 18,1 km/h
15.10.2012 14:00 15,9 C 66 % 1005,0 hPa 0,0 l/m 7,8 km/h N 9,5 C 15,0 C 18,9 km/h
15.10.2012 15:00 14,7 C 67 % 1005,7 hPa 0,0 l/m 9,4 km/h N 8,7 C 13,1 C 23,7 km/h
15.10.2012 16:00 13,6 C 68 % 1006,6 hPa 0,0 l/m 11,3 km/h N 7,8 C 10,9 C 28,2 km/h
15.10.2012 17:00 12,3 C 71 % 1007,7 hPa 0,0 l/m 7,0 km/h N 7,2 C 11,6 C 24,1 km/h
15.10.2012 18:00 11,0 C 74 % 1008,8 hPa 0,0 l/m 3,8 km/h N 6,5 C 11,0 C 20,1 km/h
15.10.2012 19:00 10,1 C 76 % 1010,0 hPa 0,0 l/m 3,2 km/h N 5,9 C 10,1 C 17,7 km/h
15.10.2012 20:00 9,5 C 77 % 1010,7 hPa 0,5 l/m 1,3 km/h N 5,6 C 9,5 C 8,4 km/h
15.10.2012 21:00 8,7 C 81 % 1011,8 hPa 0,5 l/m 3,9 km/h N 5,6 C 8,7 C 14,9 km/h
15.10.2012 22:00 8,3 C 83 % 1012,5 hPa 0,8 l/m 4,9 km/h N 5,5 C 8,3 C 13,7 km/h
15.10.2012 23:00 8,2 C 83 % 1012,5 hPa 0,3 l/m 5,8 km/h N 5,4 C 7,9 C 17,7 km/h
16.10.2012 00:00 8,2 C 83 % 1012,3 hPa 0,5 l/m 6,9 km/h N 5,5 C 7,5 C 17,3 km/h
16.10.2012 01:00 8,1 C 84 % 1012,5 hPa 0,8 l/m 5,7 km/h N 5,4 C 8,1 C 15,3 km/h
16.10.2012 02:00 7,8 C 83 % 1012,7 hPa 0,3 l/m 3,1 km/h N 5,2 C 7,8 C 10,5 km/h
16.10.2012 03:00 7,7 C 83 % 1011,9 hPa 0,0 l/m 4,1 km/h N 5,0 C 7,7 C 11,3 km/h
16.10.2012 04:00 7,6 C 84 % 1011,6 hPa 0,0 l/m 5,1 km/h N 5,1 C 7,6 C 14,9 km/h
16.10.2012 05:00 7,6 C 84 % 1011,5 hPa 0,5 l/m 5,4 km/h N 5,1 C 7,5 C 16,5 km/h
16.10.2012 06:00 7,4 C 84 % 1011,4 hPa 0,5 l/m 6,7 km/h N 4,9 C 6,7 C 22,5 km/h
16.10.2012 07:00 7,2 C 84 % 1011,3 hPa 1,0 l/m 7,8 km/h N 4,7 C 6,1 C 20,9 km/h
16.10.2012 08:00 7,2 C 84 % 1011,6 hPa 1,8 l/m 9,2 km/h N 4,6 C 5,0 C 22,1 km/h
16.10.2012 09:00 7,0 C 83 % 1011,6 hPa 1,8 l/m 8,9 km/h N 4,3 C 5,1 C 22,5 km/h
16.10.2012 10:00 6,9 C 83 % 1011,4 hPa 1,3 l/m 9,4 km/h N 4,2 C 4,6 C 23,3 km/h
16.10.2012 11:00 7,0 C 84 % 1011,5 hPa 1,3 l/m 10,5 km/h N 4,5 C 3,9 C 24,1 km/h
16.10.2012 12:00 7,4 C 84 % 1011,3 hPa 0,0 l/m 11,0 km/h N 4,9 C 4,3 C 27,0 km/h
16.10.2012 13:00 7,9 C 82 % 1011,0 hPa 0,0 l/m 11,0 km/h N 5,0 C 4,7 C 26,2 km/h
16.10.2012 14:00 7,9 C 80 % 1011,3 hPa 0,0 l/m 6,7 km/h N 4,6 C 7,2 C 23,3 km/h
16.10.2012 15:00 7,7 C 80 % 1011,6 hPa 0,3 l/m 5,6 km/h N 4,5 C 7,3 C 22,9 km/h
16.10.2012 16:00 7,4 C 83 % 1011,5 hPa 1,3 l/m 6,8 km/h N 4,7 C 6,4 C 25,7 km/h
16.10.2012 17:00 7,6 C 83 % 1011,8 hPa 0,5 l/m 7,6 km/h N 4,9 C 6,7 C 25,8 km/h
16.10.2012 18:00 8,1 C 80 % 1012,5 hPa 0,0 l/m 5,5 km/h N 4,9 C 8,0 C 19,3 km/h
16.10.2012 19:00 8,3 C 79 % 1013,5 hPa 0,0 l/m 5,6 km/h N 4,9 C 7,8 C 18,1 km/h
16.10.2012 20:00 8,3 C 81 % 1014,3 hPa 0,0 l/m 0,5 km/h N 5,1 C 8,3 C 5,6 km/h
16.10.2012 21:00 8,2 C 81 % 1014,8 hPa 0,0 l/m 1,0 km/h N 5,0 C 8,2 C 7,2 km/h
16.10.2012 22:00 8,4 C 78 % 1015,1 hPa 0,0 l/m 0,3 km/h N 4,8 C 8,4 C 3,2 km/h
16.10.2012 23:00 6,5 C 80 % 1015,4 hPa 0,0 l/m 0,0 km/h N 3,2 C 6,5 C 0,4 km/h
17.10.2012 00:00 4,6 C 83 % 1015,9 hPa 0,0 l/m 0,1 km/h N 2,0 C 4,6 C 2,0 km/h
17.10.2012 01:00 3,4 C 84 % 1016,7 hPa 0,0 l/m 0,4 km/h N 1,0 C 3,4 C 4,4 km/h
17.10.2012 02:00 2,5 C 84 % 1017,3 hPa 0,0 l/m 0,0 km/h N 0,1 C 2,5 C 0,0 km/h
17.10.2012 03:00 2,5 C 83 % 1017,6 hPa 0,0 l/m 0,0 km/h N -0,0 C 2,5 C 0,4 km/h
17.10.2012 04:00 2,2 C 83 % 1018,1 hPa 0,0 l/m 0,0 km/h N -0,4 C 2,2 C 0,4 km/h
17.10.2012 05:00 2,0 C 82 % 1018,5 hPa 0,0 l/m 0,1 km/h N -0,7 C 2,0 C 1,2 km/h
17.10.2012 06:00 3,0 C 81 % 1018,8 hPa 0,0 l/m 0,1 km/h N -0,0 C 3,0 C 2,4 km/h
17.10.2012 07:00 2,8 C 81 % 1019,4 hPa 0,0 l/m 0,2 km/h N -0,2 C 2,8 C 2,4 km/h
17.10.2012 08:00 3,3 C 80 % 1019,8 hPa 0,0 l/m 0,1 km/h N 0,2 C 3,3 C 1,6 km/h
17.10.2012 09:00 5,6 C 78 % 1020,0 hPa 0,0 l/m 0,3 km/h N 2,1 C 5,6 C 2,8 km/h
17.10.2012 10:00 8,5 C 79 % 1020,0 hPa 0,0 l/m 0,7 km/h N 5,1 C 8,5 C 5,2 km/h
17.10.2012 11:00 11,5 C 74 % 1019,8 hPa 0,0 l/m 3,3 km/h N 7,0 C 11,5 C 8,9 km/h
17.10.2012 12:00 14,5 C 66 % 1019,4 hPa 0,0 l/m 4,2 km/h N 8,2 C 14,5 C 13,7 km/h
17.10.2012 13:00 15,5 C 62 % 1019,1 hPa 0,0 l/m 3,9 km/h N 8,2 C 15,5 C 13,3 km/h
17.10.2012 14:00 14,4 C 67 % 1019,0 hPa 0,0 l/m 4,8 km/h N 8,4 C 14,1 C 15,3 km/h
17.10.2012 15:00 13,2 C 74 % 1019,1 hPa 0,0 l/m 5,9 km/h N 8,7 C 13,0 C 16,9 km/h
17.10.2012 16:00 11,3 C 80 % 1019,1 hPa 0,0 l/m 7,7 km/h N 7,9 C 10,5 C 17,7 km/h
17.10.2012 17:00 10,8 C 83 % 1019,1 hPa 0,0 l/m 3,2 km/h N 7,9 C 10,8 C 10,9 km/h
17.10.2012 18:00 10,1 C 83 % 1019,1 hPa 0,0 l/m 0,1 km/h N 7,3 C 10,1 C 1,2 km/h
17.10.2012 19:00 8,8 C 83 % 1019,1 hPa 0,0 l/m 0,0 km/h N 6,1 C 8,8 C 0,0 km/h
17.10.2012 20:00 8,9 C 83 % 1019,1 hPa 0,0 l/m 0,0 km/h N 6,1 C 8,9 C 0,8 km/h
17.10.2012 21:00 9,1 C 82 % 1018,9 hPa 0,0 l/m 0,0 km/h N 6,1 C 9,1 C 0,0 km/h
17.10.2012 22:00 9,7 C 80 % 1018,8 hPa 0,0 l/m 0,0 km/h N 6,4 C 9,7 C 0,0 km/h
17.10.2012 23:00 10,2 C 80 % 1018,6 hPa 0,0 l/m 0,0 km/h N 6,9 C 10,2 C 1,2 km/h
18.10.2012 00:00 10,2 C 80 % 1018,5 hPa 0,0 l/m 0,1 km/h N 6,9 C 10,2 C 0,8 km/h
18.10.2012 01:00 10,1 C 79 % 1018,8 hPa 0,0 l/m 0,0 km/h N 6,7 C 10,1 C 0,0 km/h
18.10.2012 02:00 10,3 C 79 % 1018,7 hPa 0,0 l/m 0,0 km/h N 6,8 C 10,3 C 0,0 km/h
18.10.2012 03:00 10,4 C 79 % 1018,5 hPa 0,0 l/m 0,7 km/h N 6,9 C 10,4 C 3,6 km/h
18.10.2012 04:00 10,4 C 78 % 1018,7 hPa 0,0 l/m 0,2 km/h N 6,7 C 10,4 C 3,6 km/h
18.10.2012 05:00 10,3 C 78 % 1018,6 hPa 0,0 l/m 0,4 km/h N 6,6 C 10,3 C 5,2 km/h
18.10.2012 06:00 10,2 C 78 % 1018,5 hPa 0,0 l/m 1,4 km/h N 6,6 C 10,2 C 6,0 km/h
18.10.2012 07:00 10,1 C 79 % 1018,7 hPa 0,0 l/m 1,9 km/h N 6,5 C 10,1 C 7,6 km/h
18.10.2012 08:00 9,9 C 79 % 1019,2 hPa 0,0 l/m 4,1 km/h N 6,4 C 9,9 C 9,7 km/h
18.10.2012 09:00 9,8 C 79 % 1019,7 hPa 0,0 l/m 3,9 km/h N 6,4 C 9,8 C 12,5 km/h
18.10.2012 10:00 10,0 C 80 % 1020,0 hPa 0,0 l/m 2,1 km/h N 6,7 C 10,0 C 9,6 km/h
18.10.2012 11:00 10,5 C 81 % 1019,9 hPa 0,0 l/m 2,6 km/h N 7,4 C 10,5 C 8,9 km/h
18.10.2012 12:00 11,5 C 83 % 1019,5 hPa 0,0 l/m 2,4 km/h N 8,7 C 11,5 C 8,0 km/h
18.10.2012 13:00 13,7 C 83 % 1018,5 hPa 0,0 l/m 1,7 km/h N 10,9 C 13,7 C 8,9 km/h
18.10.2012 14:00 16,7 C 76 % 1017,4 hPa 0,0 l/m 4,8 km/h N 12,4 C 16,7 C 11,7 km/h
18.10.2012 15:00 18,6 C 70 % 1016,7 hPa 0,0 l/m 7,3 km/h N 13,0 C 18,0 C 22,1 km/h
18.10.2012 16:00 18,9 C 69 % 1016,3 hPa 0,0 l/m 6,9 km/h N 13,1 C 18,6 C 18,9 km/h
18.10.2012 17:00 18,3 C 71 % 1016,1 hPa 0,0 l/m 4,7 km/h N 13,0 C 18,2 C 16,5 km/h
18.10.2012 18:00 16,8 C 75 % 1016,5 hPa 0,0 l/m 3,3 km/h N 12,2 C 16,8 C 11,7 km/h
18.10.2012 19:00 15,4 C 78 % 1016,9 hPa 0,0 l/m 1,6 km/h N 11,6 C 15,4 C 8,8 km/h
18.10.2012 20:00 14,4 C 80 % 1017,0 hPa 0,0 l/m 0,5 km/h N 10,9 C 14,4 C 4,0 km/h
18.10.2012 21:00 12,6 C 82 % 1017,4 hPa 0,0 l/m 0,3 km/h N 9,6 C 12,6 C 4,0 km/h
18.10.2012 22:00 11,4 C 83 % 1017,9 hPa 0,0 l/m 0,0 km/h N 8,6 C 11,4 C 0,0 km/h
18.10.2012 23:00 9,5 C 83 % 1018,4 hPa 0,0 l/m 0,0 km/h N 6,9 C 9,5 C 0,0 km/h
19.10.2012 00:00 8,6 C 83 % 1018,8 hPa 0,0 l/m 0,0 km/h N 5,9 C 8,6 C 0,0 km/h
19.10.2012 01:00 8,0 C 83 % 1018,8 hPa 0,0 l/m 0,0 km/h N 5,3 C 8,0 C 0,0 km/h
19.10.2012 02:00 7,3 C 82 % 1019,1 hPa 0,0 l/m 0,0 km/h N 4,4 C 7,3 C 0,0 km/h
19.10.2012 03:00 6,9 C 82 % 1019,3 hPa 0,0 l/m 0,0 km/h N 4,0 C 6,9 C 0,0 km/h
19.10.2012 04:00 7,3 C 80 % 1019,3 hPa 0,0 l/m 0,0 km/h N 4,1 C 7,3 C 0,0 km/h
19.10.2012 05:00 8,5 C 78 % 1019,5 hPa 0,0 l/m 0,0 km/h N 4,9 C 8,5 C 0,0 km/h
19.10.2012 06:00 9,2 C 78 % 1019,6 hPa 0,0 l/m 0,0 km/h N 5,6 C 9,2 C 0,0 km/h
19.10.2012 07:00 9,4 C 78 % 1019,7 hPa 0,0 l/m 0,0 km/h N 5,8 C 9,4 C 0,0 km/h
19.10.2012 08:00 9,5 C 78 % 1020,2 hPa 0,0 l/m 0,0 km/h N 5,9 C 9,5 C 0,0 km/h
19.10.2012 09:00 9,8 C 78 % 1020,5 hPa 0,0 l/m 0,2 km/h N 6,2 C 9,8 C 4,0 km/h
19.10.2012 10:00 10,6 C 77 % 1020,7 hPa 0,0 l/m 0,3 km/h N 6,7 C 10,6 C 3,6 km/h
19.10.2012 11:00 11,2 C 78 % 1020,6 hPa 0,0 l/m 0,6 km/h N 7,4 C 11,2 C 5,2 km/h
19.10.2012 12:00 12,1 C 78 % 1020,3 hPa 0,0 l/m 0,9 km/h N 8,4 C 12,1 C 6,4 km/h
19.10.2012 13:00 14,0 C 82 % 1019,7 hPa 0,0 l/m 1,6 km/h N 10,9 C 14,0 C 7,6 km/h
19.10.2012 14:00 15,4 C 78 % 1019,1 hPa 0,0 l/m 2,5 km/h N 11,6 C 15,4 C 8,0 km/h
19.10.2012 15:00 15,3 C 78 % 1018,8 hPa 0,0 l/m 3,7 km/h N 11,5 C 15,3 C 9,3 km/h
19.10.2012 16:00 14,9 C 78 % 1018,4 hPa 0,0 l/m 3,4 km/h N 11,0 C 14,9 C 10,1 km/h
19.10.2012 17:00 13,4 C 82 % 1018,4 hPa 0,0 l/m 3,7 km/h N 10,4 C 13,4 C 10,4 km/h
19.10.2012 18:00 12,4 C 83 % 1018,6 hPa 0,0 l/m 0,3 km/h N 9,6 C 12,4 C 2,0 km/h
19.10.2012 19:00 10,6 C 83 % 1018,4 hPa 0,0 l/m 0,0 km/h N 7,8 C 10,6 C 0,0 km/h
19.10.2012 20:00 9,0 C 84 % 1018,4 hPa 0,0 l/m 0,0 km/h N 6,4 C 9,0 C 0,0 km/h
19.10.2012 21:00 8,1 C 83 % 1018,4 hPa 0,0 l/m 0,0 km/h N 5,5 C 8,1 C 0,0 km/h
19.10.2012 22:00 7,5 C 82 % 1018,3 hPa 0,0 l/m 0,0 km/h N 4,7 C 7,5 C 0,0 km/h
19.10.2012 23:00 6,9 C 82 % 1018,5 hPa 0,0 l/m 0,0 km/h N 4,1 C 6,9 C 0,0 km/h
20.10.2012 00:00 6,6 C 81 % 1018,4 hPa 0,0 l/m 0,0 km/h N 3,5 C 6,6 C 0,0 km/h
20.10.2012 01:00 6,7 C 80 % 1018,4 hPa 0,0 l/m 0,0 km/h N 3,5 C 6,7 C 0,0 km/h
20.10.2012 02:00 6,6 C 80 % 1018,4 hPa 0,0 l/m 0,0 km/h N 3,3 C 6,6 C 0,0 km/h
20.10.2012 03:00 6,3 C 80 % 1018,2 hPa 0,0 l/m 0,0 km/h N 3,1 C 6,3 C 0,0 km/h
20.10.2012 04:00 6,7 C 78 % 1018,2 hPa 0,0 l/m 0,0 km/h N 3,0 C 6,7 C 0,0 km/h
20.10.2012 05:00 8,5 C 76 % 1018,2 hPa 0,0 l/m 0,1 km/h N 4,5 C 8,5 C 1,2 km/h
20.10.2012 06:00 10,1 C 76 % 1018,3 hPa 0,0 l/m 0,0 km/h N 6,0 C 10,1 C 0,0 km/h
20.10.2012 07:00 9,3 C 77 % 1018,5 hPa 0,0 l/m 0,0 km/h N 5,5 C 9,3 C 1,2 km/h
20.10.2012 08:00 10,1 C 76 % 1019,3 hPa 0,0 l/m 0,9 km/h N 5,9 C 10,1 C 3,6 km/h
20.10.2012 09:00 11,1 C 75 % 1019,7 hPa 0,0 l/m 3,8 km/h N 6,8 C 11,1 C 10,5 km/h
20.10.2012 10:00 11,2 C 76 % 1020,2 hPa 0,0 l/m 3,8 km/h N 7,1 C 11,2 C 9,7 km/h
20.10.2012 11:00 11,8 C 76 % 1020,5 hPa 0,0 l/m 4,8 km/h N 7,8 C 11,8 C 12,9 km/h
20.10.2012 12:00 13,3 C 83 % 1020,1 hPa 0,0 l/m 6,3 km/h N 10,5 C 13,2 C 16,1 km/h
20.10.2012 13:00 15,0 C 80 % 1019,7 hPa 0,0 l/m 5,9 km/h N 11,5 C 15,0 C 13,7 km/h
20.10.2012 14:00 16,5 C 76 % 1019,4 hPa 0,0 l/m 4,2 km/h N 12,2 C 16,5 C 12,1 km/h
20.10.2012 15:00 17,1 C 74 % 1019,3 hPa 0,0 l/m 3,0 km/h N 12,4 C 17,1 C 9,3 km/h
20.10.2012 16:00 16,3 C 76 % 1019,3 hPa 0,0 l/m 3,9 km/h N 12,0 C 16,3 C 9,3 km/h
20.10.2012 17:00 15,0 C 79 % 1019,3 hPa 0,0 l/m 1,4 km/h N 11,5 C 15,0 C 6,4 km/h
20.10.2012 18:00 13,2 C 80 % 1019,6 hPa 0,0 l/m 0,0 km/h N 9,9 C 13,2 C 1,2 km/h
20.10.2012 19:00 11,0 C 82 % 1019,9 hPa 0,0 l/m 0,0 km/h N 8,1 C 11,0 C 0,0 km/h
20.10.2012 20:00 9,3 C 84 % 1020,1 hPa 0,0 l/m 0,0 km/h N 6,7 C 9,3 C 0,0 km/h
20.10.2012 21:00 8,3 C 84 % 1020,2 hPa 0,0 l/m 0,0 km/h N 5,7 C 8,3 C 0,0 km/h
20.10.2012 22:00 8,4 C 82 % 1020,0 hPa 0,0 l/m 0,0 km/h N 5,5 C 8,4 C 0,0 km/h
20.10.2012 23:00 8,4 C 82 % 1019,8 hPa 0,0 l/m 0,0 km/h N 5,4 C 8,4 C 0,8 km/h
21.10.2012 00:00 7,2 C 82 % 1019,8 hPa 0,0 l/m 0,0 km/h N 4,3 C 7,2 C 0,0 km/h
21.10.2012 01:00 6,1 C 82 % 1019,7 hPa 0,3 l/m 0,0 km/h N 3,2 C 6,1 C 0,0 km/h
21.10.2012 02:00 7,4 C 79 % 1019,6 hPa 0,0 l/m 0,0 km/h N 4,0 C 7,4 C 0,4 km/h
21.10.2012 03:00 8,3 C 79 % 1019,3 hPa 0,0 l/m 0,0 km/h N 4,8 C 8,3 C 0,4 km/h
21.10.2012 04:00 8,7 C 78 % 1019,3 hPa 0,0 l/m 0,0 km/h N 5,1 C 8,7 C 0,0 km/h
21.10.2012 05:00 9,1 C 78 % 1019,1 hPa 0,0 l/m 0,0 km/h N 5,4 C 9,1 C 0,0 km/h
21.10.2012 06:00 9,4 C 77 % 1019,1 hPa 0,0 l/m 0,0 km/h N 5,5 C 9,4 C 0,0 km/h
21.10.2012 07:00 9,4 C 77 % 1019,5 hPa 0,0 l/m 0,6 km/h N 5,6 C 9,4 C 4,4 km/h
21.10.2012 08:00 9,5 C 77 % 1019,9 hPa 0,3 l/m 0,5 km/h N 5,7 C 9,5 C 4,8 km/h
21.10.2012 09:00 9,7 C 76 % 1020,2 hPa 0,0 l/m 1,3 km/h N 5,7 C 9,7 C 7,2 km/h
21.10.2012 10:00 9,9 C 76 % 1020,3 hPa 0,0 l/m 1,2 km/h N 5,8 C 9,9 C 7,6 km/h
21.10.2012 11:00 10,0 C 76 % 1020,3 hPa 0,0 l/m 0,9 km/h N 5,9 C 10,0 C 3,6 km/h
21.10.2012 12:00 10,2 C 76 % 1020,4 hPa 0,0 l/m 0,2 km/h N 6,1 C 10,2 C 2,8 km/h
21.10.2012 13:00 10,3 C 76 % 1020,5 hPa 0,0 l/m 0,5 km/h N 6,2 C 10,3 C 4,8 km/h
21.10.2012 14:00 10,5 C 76 % 1020,5 hPa 0,0 l/m 0,2 km/h N 6,4 C 10,5 C 2,4 km/h
21.10.2012 15:00 11,1 C 75 % 1020,4 hPa 0,0 l/m 0,1 km/h N 6,8 C 11,1 C 1,6 km/h
21.10.2012 16:00 11,5 C 75 % 1020,2 hPa 0,0 l/m 0,4 km/h N 7,2 C 11,5 C 2,8 km/h
21.10.2012 17:00 11,3 C 75 % 1020,3 hPa 0,0 l/m 0,1 km/h N 7,1 C 11,3 C 1,6 km/h
21.10.2012 18:00 11,1 C 76 % 1020,5 hPa 0,0 l/m 0,1 km/h N 7,1 C 11,1 C 1,2 km/h
21.10.2012 19:00 11,0 C 76 % 1020,8 hPa 0,0 l/m 0,0 km/h N 6,9 C 11,0 C 0,0 km/h
21.10.2012 20:00 10,9 C 76 % 1020,8 hPa 0,0 l/m 0,1 km/h N 6,8 C 10,9 C 1,6 km/h
21.10.2012 21:00 10,9 C 76 % 1021,0 hPa 0,0 l/m 0,0 km/h N 6,8 C 10,9 C 0,0 km/h
21.10.2012 22:00 10,9 C 76 % 1021,2 hPa 0,0 l/m 0,0 km/h N 6,8 C 10,9 C 0,0 km/h
21.10.2012 23:00 10,9 C 76 % 1021,3 hPa 0,0 l/m 0,0 km/h N 6,8 C 10,9 C 0,0 km/h
Min-Datum _ 17.10.12 15.10.12 15.10.12 - 16.10.12 - 17.10.12 17.10.12 16.10.12
_ Min-Zeit 04:45 13:15 07:15 - 20:45 - 05:00 05:00 21:00
Minimum _ 1,9 C 55 % 1000,9 hPa - 0,0 km/h - -0,8 C 1,8 C 0,0 km/h
Max-Datum _ 15.10.12 16.10.12 21.10.12 16.10.12 15.10.12 - 18.10.12 15.10.12 15.10.12
_ Max-Zeit 13:15 01:30 23:00 08:15 09:45 - 17:00 13:15 09:45
Maximum _ 19,9 C 84 % 1021,4 hPa 1,8 l/m 16,4 km/h
N
- 13,3 C 19,4 C 41,8 km/h
N
Durchschnitt _ 10,2 C 79 % 1016,1 hPa #14,6 l/m 2,8 km/h N 6,7 C 9,9 C 8,6 km/h